Time;durP1;ratioP1;P1;durP2;ratioP2;P2;SDS_P1;SDS_P2;PMS_P1;PMS_P2;Temp;Humidity;BMP_temperature;BMP_pressure;BME280_temperature;BME280_humidity;BME280_pressure;Samples;Min_cycle;Max_cycle;Signal;HPM_P1;HPM_P2
2022/04/15 00:02:01;;;;;;;14.80;5.90;;;;;7.50;97907.20;;;;110812;1249;41150;-60
2022/04/15 00:04:34;;;;;;;15.70;6.60;;;;;7.50;97900.40;;;;110644;1251;42388;-60
2022/04/15 00:07:04;;;;;;;14.80;6.40;;;;;7.46;97899.40;;;;110815;1249;41881;-60
2022/04/15 00:09:35;;;;;;;14.90;5.80;;;;;7.40;97896.40;;;;110687;1251;41943;-59
2022/04/15 00:12:10;;;;;;;11.40;5.40;;;;;7.40;97895.60;;;;110696;1251;41139;-60
2022/04/15 00:14:40;;;;;;;13.80;5.70;;;;;7.40;97897.80;;;;110643;1252;41196;-60
2022/04/15 00:17:11;;;;;;;12.60;5.90;;;;;7.40;97898.80;;;;110719;1249;41238;-60
2022/04/15 00:19:42;;;;;;;14.10;6.00;;;;;7.40;97897.40;;;;110745;1250;41893;-60
2022/04/15 00:22:12;;;;;;;13.60;6.10;;;;;7.30;97900.20;;;;110647;1250;41334;-59
2022/04/15 00:24:42;;;;;;;13.40;6.00;;;;;7.30;97904.20;;;;110832;1249;42374;-60
2022/04/15 00:27:15;;;;;;;15.50;5.40;;;;;7.28;97906.80;;;;110813;1250;41159;-60
2022/04/15 00:29:46;;;;;;;11.70;5.30;;;;;7.20;97902.80;;;;110813;1252;42055;-60
2022/04/15 00:32:16;;;;;;;15.60;5.80;;;;;7.12;97904.40;;;;110869;1249;41604;-60
2022/04/15 00:34:46;;;;;;;14.30;6.00;;;;;7.10;97905.80;;;;110676;1250;41159;-60
2022/04/15 00:37:17;;;;;;;14.30;6.00;;;;;7.12;97904.20;;;;110684;1251;41981;-59
2022/04/15 00:39:46;;;;;;;14.50;6.00;;;;;7.10;97902.40;;;;110795;1251;41274;-60
2022/04/15 00:42:17;;;;;;;15.70;6.90;;;;;7.10;97908.80;;;;110858;1249;41466;-60
2022/04/15 00:44:48;;;;;;;16.10;6.70;;;;;7.00;97906.00;;;;110522;1251;41171;-60
2022/04/15 00:47:32;;;;;;;14.40;6.50;;;;;6.90;97904.60;;;;110652;1249;41147;-60
2022/04/15 00:50:03;;;;;;;13.80;6.10;;;;;6.80;97906.00;;;;110613;1252;41189;-59
2022/04/15 00:52:40;;;;;;;14.00;6.20;;;;;6.76;97903.40;;;;110628;1251;41147;-60
2022/04/15 00:55:13;;;;;;;15.40;5.80;;;;;6.70;97897.40;;;;110671;1251;41149;-60
2022/04/15 00:57:50;;;;;;;13.50;5.90;;;;;6.60;97902.60;;;;110821;1249;41718;-60
2022/04/15 01:00:20;;;;;;;14.40;5.60;;;;;6.58;97903.20;;;;110794;1249;42417;-60
2022/04/15 01:02:51;;;;;;;13.00;5.60;;;;;6.50;97897.40;;;;110757;1251;41169;-61
2022/04/15 01:05:21;;;;;;;16.20;6.00;;;;;6.46;97895.60;;;;110817;1249;42269;-60
2022/04/15 01:07:55;;;;;;;13.70;5.80;;;;;6.40;97895.00;;;;110690;1251;41275;-58
2022/04/15 01:10:27;;;;;;;12.70;5.90;;;;;6.40;97897.60;;;;110789;1250;41632;-61
2022/04/15 01:12:58;;;;;;;14.70;6.10;;;;;6.30;97896.60;;;;110724;1251;41188;-59
2022/04/15 01:15:49;;;;;;;11.90;5.40;;;;;6.20;97898.60;;;;110634;1251;41168;-60
2022/04/15 01:18:20;;;;;;;11.00;4.90;;;;;6.10;97902.20;;;;110543;1252;42362;-60
2022/04/15 01:20:51;;;;;;;13.80;5.00;;;;;6.10;97906.40;;;;110579;1252;41861;-61
2022/04/15 01:23:21;;;;;;;13.60;5.00;;;;;6.04;97903.80;;;;110750;1251;42395;-61
2022/04/15 01:25:51;;;;;;;13.70;5.30;;;;;6.00;97903.60;;;;110664;1251;41146;-59
2022/04/15 01:28:21;;;;;;;12.40;4.80;;;;;6.00;97900.20;;;;110625;1251;42171;-61
2022/04/15 01:30:52;;;;;;;11.70;5.30;;;;;6.00;97893.80;;;;110886;1250;41171;-58
2022/04/15 01:33:22;;;;;;;13.60;5.70;;;;;5.92;97887.40;;;;110766;1251;41272;-59
2022/04/15 01:35:56;;;;;;;11.10;4.70;;;;;5.90;97887.60;;;;110807;1250;41246;-60
2022/04/15 01:38:28;;;;;;;14.50;6.50;;;;;5.90;97885.20;;;;110700;1252;41258;-61
2022/04/15 01:40:57;;;;;;;13.80;6.40;;;;;5.90;97884.40;;;;110808;1250;41181;-60
2022/04/15 01:43:28;;;;;;;12.60;4.80;;;;;5.90;97884.20;;;;110535;1251;41638;-60
2022/04/15 01:45:58;;;;;;;9.10;4.40;;;;;5.90;97882.60;;;;110617;1251;41284;-60
2022/04/15 01:48:28;;;;;;;11.10;4.70;;;;;5.90;97885.40;;;;110680;1252;41272;-58
2022/04/15 01:50:58;;;;;;;13.10;5.50;;;;;5.84;97876.60;;;;110687;1250;41455;-60
2022/04/15 01:53:29;;;;;;;;;;;;;5.80;97874.20;;;;110728;1251;41248;-60
2022/04/15 01:56:00;;;;;;;17.00;6.30;;;;;5.70;97872.40;;;;110636;1251;41134;-60
2022/04/15 01:58:30;;;;;;;13.10;5.60;;;;;5.70;97873.60;;;;110783;1250;41507;-61
2022/04/15 02:01:01;;;;;;;12.90;5.60;;;;;5.70;97878.80;;;;110809;1251;41136;-59
2022/04/15 02:03:31;;;;;;;16.00;5.80;;;;;5.68;97878.00;;;;110828;1249;41149;-60
2022/04/15 02:06:01;;;;;;;14.20;6.10;;;;;5.60;97873.40;;;;110680;1251;41166;-60
2022/04/15 02:08:31;;;;;;;14.70;6.60;;;;;5.60;97865.80;;;;110798;1251;41166;-61
2022/04/15 02:11:02;;;;;;;;;;;;;5.50;97858.80;;;;110704;1249;41888;-59
2022/04/15 02:13:33;;;;;;;13.50;6.60;;;;;5.46;97857.80;;;;110584;1252;41396;-60
2022/04/15 02:16:03;;;;;;;;;;;;;5.40;97857.00;;;;110715;1250;41863;-59
2022/04/15 02:18:34;;;;;;;16.20;7.10;;;;;5.38;97855.20;;;;110681;1250;41151;-59
2022/04/15 02:21:04;;;;;;;16.90;7.50;;;;;5.40;97853.20;;;;110722;1249;41779;-60
2022/04/15 02:23:34;;;;;;;13.50;6.50;;;;;5.40;97855.60;;;;110727;1251;41367;-60
2022/04/15 02:26:05;;;;;;;18.60;7.00;;;;;5.40;97852.80;;;;110576;1251;43000;-60
2022/04/15 02:28:35;;;;;;;13.00;5.80;;;;;5.30;97853.00;;;;110738;1251;41168;-60
2022/04/15 02:31:05;;;;;;;13.30;6.20;;;;;5.30;97855.80;;;;110765;1251;41664;-60
2022/04/15 02:33:36;;;;;;;13.20;6.30;;;;;5.30;97859.20;;;;110637;1252;41155;-59
2022/04/15 02:36:07;;;;;;;12.80;5.60;;;;;5.30;97859.80;;;;110739;1251;41150;-61
2022/04/15 02:38:38;;;;;;;12.50;5.40;;;;;5.20;97858.60;;;;110777;1251;41269;-60
2022/04/15 02:41:07;;;;;;;12.90;5.30;;;;;5.20;97859.20;;;;110624;1250;42104;-60
2022/04/15 02:43:39;;;;;;;15.40;5.80;;;;;5.12;97854.40;;;;110697;1251;42619;-61
2022/04/15 02:46:11;;;;;;;12.00;5.20;;;;;5.10;97853.20;;;;110677;1250;41256;-59
2022/04/15 02:48:41;;;;;;;14.10;5.30;;;;;5.04;97859.40;;;;110742;1251;41155;-60
2022/04/15 02:51:14;;;;;;;12.60;5.20;;;;;5.00;97858.00;;;;110672;1251;42512;-60
2022/04/15 02:53:43;;;;;;;;;;;;;4.90;97854.80;;;;110800;1250;41147;-60
2022/04/15 02:56:14;;;;;;;11.70;5.00;;;;;4.90;97859.20;;;;110799;1251;41136;-60
2022/04/15 02:58:44;;;;;;;10.90;4.80;;;;;4.88;97853.80;;;;110597;1252;41327;-59
2022/04/15 03:01:14;;;;;;;11.30;4.70;;;;;4.80;97852.20;;;;110580;1252;41913;-60
2022/04/15 03:03:43;;;;;;;13.90;5.20;;;;;4.80;97852.60;;;;110710;1251;42370;-60
2022/04/15 03:06:13;;;;;;;12.80;4.60;;;;;4.80;97851.80;;;;110628;1252;42771;-60
2022/04/15 03:08:43;;;;;;;11.40;5.00;;;;;4.70;97847.40;;;;110738;1250;41449;-60
2022/04/15 03:11:12;;;;;;;14.00;5.40;;;;;4.70;97845.80;;;;110743;1251;41174;-58
2022/04/15 03:13:42;;;;;;;10.40;4.90;;;;;4.70;97846.20;;;;110517;1252;41355;-60
2022/04/15 03:16:12;;;;;;;12.20;4.90;;;;;4.70;97849.00;;;;110856;1250;41410;-60
2022/04/15 03:18:43;;;;;;;13.30;5.20;;;;;4.70;97849.20;;;;110736;1251;41255;-60
2022/04/15 03:21:14;;;;;;;12.80;5.20;;;;;4.66;97848.60;;;;110931;1250;41140;-60
2022/04/15 03:23:44;;;;;;;12.00;4.80;;;;;4.60;97847.00;;;;110826;1250;41717;-60
2022/04/15 03:26:14;;;;;;;14.60;5.30;;;;;4.60;97855.60;;;;110608;1250;41168;-60
2022/04/15 03:28:44;;;;;;;10.90;5.00;;;;;4.50;97849.40;;;;110634;1252;41872;-60
2022/04/15 03:31:14;;;;;;;11.00;4.90;;;;;4.50;97850.80;;;;110730;1251;41156;-61
2022/04/15 03:33:45;;;;;;;11.70;5.30;;;;;4.50;97849.00;;;;110646;1251;42113;-60
2022/04/15 03:36:15;;;;;;;12.70;5.30;;;;;4.50;97847.40;;;;110788;1251;42235;-60
2022/04/15 03:38:45;;;;;;;13.00;5.50;;;;;4.50;97847.40;;;;110624;1252;42397;-61
2022/04/15 03:41:15;;;;;;;13.00;6.40;;;;;4.40;97856.20;;;;110614;1251;41238;-61
2022/04/15 03:43:45;;;;;;;12.80;5.50;;;;;4.30;97859.20;;;;110779;1250;41706;-60
2022/04/15 03:46:15;;;;;;;11.00;4.80;;;;;4.30;97851.80;;;;110827;1250;41152;-59
2022/04/15 03:48:45;;;;;;;;;;;;;4.20;97848.00;;;;110793;1250;42391;-59
2022/04/15 03:51:15;;;;;;;11.60;4.70;;;;;4.20;97854.80;;;;110781;1250;41559;-60
2022/04/15 03:53:44;;;;;;;13.80;4.90;;;;;4.16;97851.40;;;;110801;1250;42265;-59
2022/04/15 03:56:14;;;;;;;14.90;5.50;;;;;4.20;97845.80;;;;110664;1249;41135;-60
2022/04/15 03:58:43;;;;;;;11.60;4.90;;;;;4.20;97846.20;;;;110623;1250;41140;-61
2022/04/15 04:01:13;;;;;;;11.50;4.70;;;;;4.20;97846.20;;;;110708;1250;41930;-60
2022/04/15 04:03:42;;;;;;;9.70;4.50;;;;;4.22;97850.00;;;;110634;1250;41156;-60
2022/04/15 04:06:12;;;;;;;12.90;5.10;;;;;4.30;97849.80;;;;110693;1250;41137;-60
2022/04/15 04:08:49;;;;;;;12.50;5.20;;;;;4.30;97855.00;;;;110650;1250;41610;-60
2022/04/15 04:11:21;;;;;;;12.50;5.30;;;;;4.30;97855.00;;;;110619;1250;41172;-60
2022/04/15 04:13:50;;;;;;;11.40;5.00;;;;;4.30;97845.20;;;;110648;1251;41146;-60
2022/04/15 04:16:19;;;;;;;10.20;4.80;;;;;4.30;97850.00;;;;110739;1250;42227;-60
2022/04/15 04:18:48;;;;;;;10.30;4.40;;;;;4.38;97849.60;;;;110578;1251;41348;-60
2022/04/15 04:21:20;;;;;;;10.00;4.60;;;;;4.40;97852.60;;;;110633;1251;42156;-58
2022/04/15 04:23:50;;;;;;;14.70;5.30;;;;;4.50;97848.20;;;;110642;1249;41269;-58
2022/04/15 04:26:19;;;;;;;11.20;5.10;;;;;4.50;97844.20;;;;110756;1250;41460;-60
2022/04/15 04:28:49;;;;;;;12.90;5.60;;;;;4.60;97842.40;;;;110714;1250;41152;-60
2022/04/15 04:31:22;;;;;;;12.00;5.60;;;;;4.60;97848.80;;;;110701;1251;41153;-60
2022/04/15 04:33:51;;;;;;;13.00;5.30;;;;;4.70;97850.00;;;;110747;1250;41834;-60
2022/04/15 04:36:20;;;;;;;13.40;5.40;;;;;4.74;97847.40;;;;110765;1252;41267;-60
2022/04/15 04:38:49;;;;;;;11.10;5.50;;;;;4.88;97847.20;;;;110602;1252;41277;-60
2022/04/15 04:41:19;;;;;;;10.40;4.70;;;;;5.00;97845.80;;;;110903;1250;41140;-59
2022/04/15 04:43:49;;;;;;;11.50;4.40;;;;;5.10;97847.60;;;;110602;1250;41139;-60
2022/04/15 04:46:19;;;;;;;11.20;5.30;;;;;5.20;97846.20;;;;110867;1250;41951;-60
2022/04/15 04:48:52;;;;;;;15.60;6.30;;;;;5.30;97840.40;;;;110787;1250;41634;-60
2022/04/15 04:51:22;;;;;;;13.90;6.50;;;;;5.42;97842.40;;;;110715;1249;41667;-59
2022/04/15 04:53:51;;;;;;;14.20;6.40;;;;;5.60;97846.80;;;;110833;1249;41005;-59
2022/04/15 04:56:20;;;;;;;14.80;6.10;;;;;5.68;97846.40;;;;110793;1250;41155;-59
2022/04/15 04:58:49;;;;;;;16.40;7.60;;;;;5.70;97843.80;;;;110780;1251;42430;-61
2022/04/15 05:01:19;;;;;;;23.50;9.80;;;;;5.82;97844.60;;;;110731;1250;41151;-60
2022/04/15 05:03:48;;;;;;;19.40;8.80;;;;;5.90;97845.60;;;;110631;1252;41225;-59
2022/04/15 05:06:18;;;;;;;21.10;9.90;;;;;5.90;97839.00;;;;110582;1252;41167;-60
2022/04/15 05:08:50;;;;;;;24.50;10.90;;;;;6.00;97843.60;;;;110608;1251;41643;-59
2022/04/15 05:11:24;;;;;;;23.90;10.90;;;;;5.90;97847.40;;;;110747;1251;41198;-59
2022/04/15 05:13:53;;;;;;;20.70;9.90;;;;;5.90;97849.00;;;;110682;1251;41262;-60
2022/04/15 05:16:23;;;;;;;21.60;8.90;;;;;5.92;97854.20;;;;110687;1251;41150;-60
2022/04/15 05:18:53;;;;;;;21.50;9.70;;;;;6.10;97855.20;;;;110655;1251;41341;-59
2022/04/15 05:21:22;;;;;;;17.40;8.80;;;;;6.20;97854.60;;;;110619;1251;41606;-59
2022/04/15 05:23:52;;;;;;;19.00;8.90;;;;;6.34;97852.20;;;;110723;1252;41267;-59
2022/04/15 05:26:21;;;;;;;24.80;8.40;;;;;6.50;97853.60;;;;110685;1251;41812;-59
2022/04/15 05:28:51;;;;;;;16.10;7.30;;;;;6.68;97851.00;;;;110661;1251;41949;-59
2022/04/15 05:31:21;;;;;;;14.30;6.80;;;;;6.80;97846.80;;;;110579;1251;41281;-59
2022/04/15 05:33:52;;;;;;;15.10;7.20;;;;;7.00;97843.20;;;;110749;1251;42521;-59
2022/04/15 05:36:21;;;;;;;15.50;6.50;;;;;7.10;97845.20;;;;110525;1252;42417;-59
2022/04/15 05:38:52;;;;;;;14.20;6.20;;;;;7.30;97842.20;;;;110720;1251;41374;-59
2022/04/15 05:41:23;;;;;;;16.60;6.90;;;;;7.50;97836.00;;;;110727;1251;41167;-61
2022/04/15 05:43:55;;;;;;;12.70;6.30;;;;;7.68;97835.00;;;;110400;1252;41266;-61
2022/04/15 05:46:28;;;;;;;13.20;6.30;;;;;7.80;97829.20;;;;110669;1251;41274;-59
2022/04/15 05:48:58;;;;;;;18.10;6.50;;;;;8.00;97827.00;;;;110694;1252;41231;-60
2022/04/15 05:51:27;;;;;;;14.00;6.10;;;;;8.20;97823.20;;;;110705;1251;41140;-59
2022/04/15 05:53:57;;;;;;;18.50;8.00;;;;;8.38;97824.20;;;;110649;1251;41228;-60
2022/04/15 05:56:28;;;;;;;22.30;7.70;;;;;8.52;97823.00;;;;110554;1251;41146;-61
2022/04/15 05:59:01;;;;;;;13.80;6.90;;;;;8.70;97821.20;;;;110580;1252;41334;-60
2022/04/15 06:01:31;;;;;;;17.10;7.00;;;;;8.88;97821.60;;;;110639;1252;41617;-60
2022/04/15 06:04:00;;;;;;;19.30;6.90;;;;;9.00;97821.80;;;;110708;1252;41158;-59
2022/04/15 06:06:31;;;;;;;16.90;7.10;;;;;9.24;97817.00;;;;110650;1251;41948;-60
2022/04/15 06:09:07;;;;;;;15.60;7.00;;;;;9.46;97812.40;;;;110572;1252;41164;-60
2022/04/15 06:11:43;;;;;;;15.90;7.20;;;;;9.60;97808.40;;;;110485;1252;41275;-60
2022/04/15 06:14:12;;;;;;;15.20;7.00;;;;;9.80;97808.80;;;;110672;1252;41186;-60
2022/04/15 06:16:43;;;;;;;15.20;6.50;;;;;9.96;97806.60;;;;110652;1250;41154;-60
2022/04/15 06:19:13;;;;;;;12.70;5.90;;;;;10.10;97805.80;;;;110707;1251;41733;-60
2022/04/15 06:21:52;;;;;;;13.10;5.90;;;;;10.30;97799.00;;;;110749;1249;41150;-60
2022/04/15 06:24:23;;;;;;;11.90;5.40;;;;;10.50;97792.40;;;;110735;1249;41555;-59
2022/04/15 06:26:52;;;;;;;18.00;6.80;;;;;10.76;97795.40;;;;110199;1250;720510;-59
2022/04/15 06:29:21;;;;;;;13.60;6.40;;;;;10.96;97791.20;;;;110734;1252;41354;-60
2022/04/15 06:31:53;;;;;;;16.10;6.40;;;;;11.10;97790.20;;;;110741;1249;41602;-59
2022/04/15 06:34:25;;;;;;;12.80;5.30;;;;;11.30;97789.40;;;;110843;1249;41261;-60
2022/04/15 06:36:58;;;;;;;14.00;6.00;;;;;11.50;97788.60;;;;110697;1250;41785;-60
2022/04/15 06:39:34;;;;;;;16.60;5.20;;;;;11.70;97780.00;;;;110607;1251;42558;-60
2022/04/15 06:42:18;;;;;;;11.10;4.70;;;;;11.90;97781.60;;;;110861;1249;40745;-60
2022/04/15 06:44:51;;;;;;;12.90;4.90;;;;;12.10;97779.60;;;;110596;1249;41719;-60
2022/04/15 06:47:20;;;;;;;11.60;4.90;;;;;12.30;97778.20;;;;110754;1250;41236;-60
2022/04/15 06:49:49;;;;;;;12.60;4.50;;;;;12.50;97778.80;;;;110806;1249;41387;-60
2022/04/15 06:52:18;;;;;;;12.00;4.10;;;;;12.66;97780.20;;;;110808;1249;41161;-60
2022/04/15 06:54:48;;;;;;;9.20;4.00;;;;;12.88;97780.80;;;;110714;1250;41493;-60
2022/04/15 06:57:17;;;;;;;14.90;4.80;;;;;13.08;97782.20;;;;110719;1249;41257;-60
2022/04/15 06:59:45;;;;;;;9.80;4.50;;;;;13.24;97781.40;;;;110744;1250;41149;-60
2022/04/15 07:02:16;;;;;;;13.20;5.80;;;;;13.40;97779.80;;;;110735;1249;41687;-60
2022/04/15 07:04:50;;;;;;;11.40;5.10;;;;;13.60;97782.40;;;;110684;1251;41275;-61
2022/04/15 07:07:19;;;;;;;11.10;4.60;;;;;13.68;97781.60;;;;110753;1250;41185;-60
2022/04/15 07:09:51;;;;;;;13.10;4.70;;;;;13.74;97773.40;;;;110747;1249;41635;-59
2022/04/15 07:12:21;;;;;;;12.10;4.90;;;;;13.90;97774.40;;;;110743;1249;41517;-60
2022/04/15 07:14:50;;;;;;;10.00;4.00;;;;;14.00;97771.60;;;;110722;1249;41936;-59
2022/04/15 07:17:19;;;;;;;11.80;4.50;;;;;14.18;97770.60;;;;110741;1249;42227;-61
2022/04/15 07:19:52;;;;;;;9.90;4.30;;;;;14.40;97767.40;;;;110704;1252;41444;-60
2022/04/15 07:22:22;;;;;;;12.80;4.20;;;;;14.60;97760.60;;;;110739;1249;41155;-62
2022/04/15 07:24:51;;;;;;;9.60;4.20;;;;;14.78;97759.80;;;;110770;1252;43037;-62
2022/04/15 07:27:20;;;;;;;10.70;4.10;;;;;14.94;97755.40;;;;110732;1249;41776;-60
2022/04/15 07:29:50;;;;;;;10.40;3.90;;;;;15.10;97756.60;;;;110686;1249;41245;-60
2022/04/15 07:32:25;;;;;;;9.00;3.30;;;;;15.30;97752.60;;;;110739;1249;41588;-59
2022/04/15 07:35:02;;;;;;;10.60;3.90;;;;;15.50;97753.20;;;;110743;1250;41269;-60
2022/04/15 07:37:31;;;;;;;10.50;4.40;;;;;15.70;97759.40;;;;110747;1249;42612;-60
2022/04/15 07:40:00;;;;;;;8.20;3.40;;;;;15.80;97758.80;;;;110694;1249;42364;-60
2022/04/15 07:42:30;;;;;;;9.30;3.20;;;;;15.90;97754.80;;;;110738;1249;41134;-59
2022/04/15 07:45:01;;;;;;;9.40;3.90;;;;;16.10;97752.20;;;;110650;1250;41706;-60
2022/04/15 07:47:30;;;;;;;10.00;3.60;;;;;16.20;97750.40;;;;110784;1249;41650;-59
2022/04/15 07:50:26;;;;;;;12.80;4.80;;;;;16.40;97745.80;;;;110692;1251;41132;-61
2022/04/15 07:52:58;;;;;;;9.00;3.90;;;;;16.50;97747.40;;;;110579;1252;41928;-61
2022/04/15 07:55:27;;;;;;;13.80;4.40;;;;;16.60;97747.60;;;;110780;1249;41149;-60
2022/04/15 07:57:56;;;;;;;9.20;3.90;;;;;16.70;97742.80;;;;110751;1249;41146;-60
2022/04/15 08:00:25;;;;;;;10.00;4.00;;;;;16.80;97745.40;;;;110740;1249;41804;-60
2022/04/15 08:02:54;;;;;;;9.30;3.70;;;;;16.90;97740.00;;;;110733;1249;41220;-60
2022/04/15 08:05:24;;;;;;;8.90;3.60;;;;;17.10;97740.00;;;;110707;1249;41397;-60
2022/04/15 08:07:52;;;;;;;10.50;3.20;;;;;17.22;97735.80;;;;110724;1249;41255;-60
2022/04/15 08:10:23;;;;;;;10.40;4.20;;;;;17.40;97728.40;;;;110731;1249;41130;-60
2022/04/15 08:12:52;;;;;;;12.30;3.60;;;;;17.60;97732.60;;;;110654;1250;41302;-60
2022/04/15 08:15:22;;;;;;;11.00;4.50;;;;;17.60;97727.40;;;;110736;1249;42186;-60
2022/04/15 08:17:51;;;;;;;11.70;4.60;;;;;17.70;97723.40;;;;110693;1251;41963;-60
2022/04/15 08:20:20;;;;;;;9.00;3.80;;;;;17.80;97721.60;;;;110755;1249;41156;-60
2022/04/15 08:22:49;;;;;;;9.60;4.30;;;;;18.00;97716.80;;;;110687;1249;41152;-59
2022/04/15 08:25:19;;;;;;;11.80;3.90;;;;;18.10;97714.80;;;;110686;1251;41171;-60
2022/04/15 08:27:48;;;;;;;8.50;3.00;;;;;18.30;97718.60;;;;110809;1249;41270;-60
2022/04/15 08:30:19;;;;;;;9.50;3.20;;;;;18.46;97713.40;;;;110745;1250;41145;-59
2022/04/15 08:32:52;;;;;;;8.30;3.60;;;;;18.80;97714.60;;;;110720;1249;41193;-61
2022/04/15 08:35:21;;;;;;;7.10;3.00;;;;;19.10;97710.00;;;;110685;1249;41147;-61
2022/04/15 08:37:51;;;;;;;9.70;3.90;;;;;19.40;97705.80;;;;110740;1250;41904;-60
2022/04/15 08:40:20;;;;;;;8.20;3.30;;;;;19.64;97701.40;;;;110861;1249;41603;-60
2022/04/15 08:42:50;;;;;;;9.00;3.70;;;;;19.80;97699.20;;;;110846;1250;41158;-59
2022/04/15 08:45:27;;;;;;;7.50;3.10;;;;;19.98;97694.80;;;;110728;1250;41271;-60
2022/04/15 08:48:02;;;;;;;9.80;3.50;;;;;20.22;97692.60;;;;110540;1252;41254;-59
2022/04/15 08:50:32;;;;;;;9.60;4.00;;;;;20.40;97687.20;;;;110663;1252;41622;-59
2022/04/15 08:53:03;;;;;;;13.60;4.00;;;;;20.48;97684.00;;;;110656;1252;41163;-59
2022/04/15 08:55:33;;;;;;;9.60;3.30;;;;;20.50;97678.40;;;;110764;1249;42353;-60
2022/04/15 08:58:05;;;;;;;10.40;3.80;;;;;20.60;97678.60;;;;110675;1251;41718;-59
2022/04/15 09:00:36;;;;;;;7.10;2.90;;;;;20.70;97680.40;;;;110756;1251;41207;-60
2022/04/15 09:03:06;;;;;;;10.50;3.80;;;;;20.98;97681.00;;;;110658;1251;41154;-61
2022/04/15 09:05:35;;;;;;;9.70;3.80;;;;;21.30;97675.00;;;;110746;1250;41469;-59
2022/04/15 09:08:07;;;;;;;11.90;3.70;;;;;21.54;97670.60;;;;110609;1252;41705;-60
2022/04/15 09:10:39;;;;;;;9.70;3.80;;;;;21.98;97670.00;;;;110804;1250;43026;-60
2022/04/15 09:13:21;;;;;;;10.80;4.20;;;;;22.28;97668.80;;;;110756;1249;41736;-60
2022/04/15 09:15:50;;;;;;;12.20;4.20;;;;;22.64;97659.80;;;;110720;1249;41680;-60
2022/04/15 09:18:31;;;;;;;10.00;4.60;;;;;23.44;97649.00;;;;110669;1250;41956;-60
2022/04/15 09:21:17;;;;;;;;;;;;;24.44;97645.40;;;;110771;1249;41161;-60
2022/04/15 09:23:51;;;;;;;9.30;3.80;;;;;25.60;97642.20;;;;110716;1252;41019;-60
2022/04/15 09:26:22;;;;;;;11.40;4.10;;;;;26.44;97638.20;;;;110707;1250;41485;-59
2022/04/15 09:28:56;;;;;;;12.70;4.10;;;;;26.82;97637.80;;;;110716;1249;42324;-60
2022/04/15 09:31:25;;;;;;;12.70;4.60;;;;;27.34;97626.80;;;;110671;1248;41154;-60
2022/04/15 09:33:59;;;;;;;12.50;5.10;;;;;27.90;97622.60;;;;110682;1249;41265;-60
2022/04/15 09:36:38;;;;;;;12.90;5.70;;;;;28.00;97619.40;;;;110681;1252;42852;-60
2022/04/15 09:39:11;;;;;;;11.70;4.50;;;;;27.74;97620.00;;;;110688;1250;41159;-60
2022/04/15 09:41:42;;;;;;;11.70;4.20;;;;;27.58;97630.00;;;;110636;1252;41544;-60
2022/04/15 09:44:12;;;;;;;12.70;3.70;;;;;27.90;97627.20;;;;110770;1250;42391;-60
2022/04/15 09:46:44;;;;;;;9.40;3.60;;;;;28.06;97624.80;;;;110698;1249;41119;-60
2022/04/15 09:49:13;;;;;;;12.10;4.10;;;;;28.26;97619.20;;;;110767;1249;41904;-60
2022/04/15 09:51:51;;;;;;;9.00;3.50;;;;;29.40;97621.40;;;;110756;1252;41560;-60
2022/04/15 09:54:26;;;;;;;10.50;3.40;;;;;30.36;97607.60;;;;110712;1249;41257;-60
2022/04/15 09:56:58;;;;;;;6.60;2.60;;;;;31.14;97597.00;;;;110771;1249;41163;-60
2022/04/15 09:59:29;;;;;;;7.80;3.40;;;;;32.32;97593.00;;;;110668;1249;41997;-61
2022/04/15 10:02:04;;;;;;;9.50;3.40;;;;;32.70;97590.40;;;;110665;1252;41184;-61
2022/04/15 10:04:33;;;;;;;10.40;3.70;;;;;32.70;97589.60;;;;110656;1251;41628;-61
2022/04/15 10:07:08;;;;;;;7.80;3.00;;;;;33.00;97592.20;;;;110689;1250;41155;-61
2022/04/15 10:09:42;;;;;;;9.10;2.90;;;;;33.14;97589.20;;;;110580;1252;41158;-61
2022/04/15 10:12:11;;;;;;;8.70;3.10;;;;;33.50;97584.80;;;;110783;1251;41259;-61
2022/04/15 10:14:40;;;;;;;11.40;3.40;;;;;33.24;97580.00;;;;110745;1249;41506;-61
2022/04/15 10:17:09;;;;;;;9.00;3.30;;;;;33.00;97582.00;;;;110691;1251;41161;-61
2022/04/15 10:19:40;;;;;;;8.40;3.10;;;;;33.10;97584.20;;;;110661;1252;41153;-61
2022/04/15 10:22:09;;;;;;;9.50;3.30;;;;;32.74;97581.60;;;;110692;1251;41025;-61
2022/04/15 10:24:39;;;;;;;8.60;3.20;;;;;32.00;97577.20;;;;110751;1249;41159;-61
2022/04/15 10:27:11;;;;;;;9.00;3.60;;;;;31.18;97577.80;;;;110784;1251;41274;-61
2022/04/15 10:29:40;;;;;;;11.10;3.70;;;;;30.70;97572.60;;;;110773;1249;41405;-61
2022/04/15 10:32:14;;;;;;;11.90;3.50;;;;;30.40;97572.20;;;;110546;1252;41278;-61
2022/04/15 10:34:47;;;;;;;7.80;2.80;;;;;30.30;97568.20;;;;110772;1252;41480;-61
2022/04/15 10:37:17;;;;;;;10.00;3.30;;;;;30.64;97568.60;;;;110672;1252;41118;-61
2022/04/15 10:39:48;;;;;;;8.40;3.00;;;;;30.82;97568.40;;;;110767;1251;42394;-61
2022/04/15 10:42:20;;;;;;;9.20;3.10;;;;;30.84;97567.20;;;;110720;1250;41230;-61
2022/04/15 10:44:59;;;;;;;8.30;2.70;;;;;31.06;97561.80;;;;110652;1252;41292;-61
2022/04/15 10:47:29;;;;;;;9.70;3.50;;;;;31.60;97559.00;;;;110762;1251;41910;-61
2022/04/15 10:50:03;;;;;;;9.10;3.30;;;;;31.62;97558.60;;;;110714;1251;41267;-61
2022/04/15 10:52:36;;;;;;;9.40;3.50;;;;;31.60;97554.40;;;;110697;1249;41543;-61
2022/04/15 10:55:07;;;;;;;8.10;3.30;;;;;31.04;97559.60;;;;110665;1250;41367;-61
2022/04/15 10:57:40;;;;;;;7.20;2.80;;;;;30.18;97556.60;;;;110739;1250;42602;-61
2022/04/15 11:03:24;;;;;;;7.30;3.00;;;;;30.12;97554.40;;;;110722;1250;41250;-61
2022/04/15 11:05:57;;;;;;;9.70;3.30;;;;;30.56;97547.00;;;;110733;1250;41344;-61
2022/04/15 11:08:48;;;;;;;8.30;3.00;;;;;31.38;97545.60;;;;110717;1250;42847;-61
2022/04/15 11:11:18;;;;;;;6.30;2.30;;;;;31.46;97534.20;;;;110658;1250;41150;-61
2022/04/15 11:13:50;;;;;;;7.80;2.40;;;;;32.50;97536.60;;;;110685;1252;41259;-61
2022/04/15 11:16:22;;;;;;;7.60;2.70;;;;;33.74;97529.40;;;;110615;1251;41260;-61
2022/04/15 11:18:56;;;;;;;7.50;2.70;;;;;34.96;97525.00;;;;110678;1252;41280;-61
2022/04/15 11:21:37;;;;;;;7.20;2.40;;;;;35.34;97519.20;;;;110661;1253;41784;-61
2022/04/15 11:24:08;;;;;;;7.70;2.70;;;;;35.82;97520.20;;;;110607;1252;42411;-62
2022/04/15 11:26:39;;;;;;;7.40;2.50;;;;;36.10;97515.60;;;;110620;1250;41738;-62
2022/04/15 11:29:10;;;;;;;5.40;2.10;;;;;36.10;97516.60;;;;110668;1252;41136;-61
2022/04/15 11:31:49;;;;;;;6.70;2.30;;;;;36.18;97509.80;;;;110638;1252;42381;-62
2022/04/15 11:34:20;;;;;;;7.20;2.20;;;;;36.40;97504.40;;;;110581;1250;41439;-62
2022/04/15 11:36:52;;;;;;;5.50;2.00;;;;;36.68;97503.20;;;;110645;1250;41255;-61
2022/04/15 11:39:22;;;;;;;7.60;2.00;;;;;37.10;97493.40;;;;110626;1252;41136;-61
2022/04/15 11:41:59;;;;;;;5.80;1.90;;;;;37.76;97488.80;;;;110587;1252;41323;-61
2022/04/15 11:44:30;;;;;;;3.60;1.70;;;;;36.82;97487.00;;;;110689;1250;41515;-61
2022/04/15 11:49:51;;;;;;;3.40;1.40;;;;;36.54;97482.80;;;;110586;1251;41151;-61
2022/04/15 11:52:25;;;;;;;2.40;1.40;;;;;36.50;97482.60;;;;110584;1251;41147;-62
2022/04/15 11:54:58;;;;;;;3.50;1.40;;;;;37.26;97477.80;;;;110604;1252;41257;-62
2022/04/15 11:57:30;;;;;;;5.00;1.70;;;;;38.16;97473.20;;;;110694;1251;41172;-62
2022/04/15 12:00:00;;;;;;;5.90;1.90;;;;;38.76;97475.40;;;;110528;1252;41346;-62
2022/04/15 12:02:42;;;;;;;3.00;1.50;;;;;38.12;97473.80;;;;110622;1252;41377;-62
2022/04/15 12:05:11;;;;;;;4.20;1.50;;;;;37.80;97468.80;;;;110638;1252;41269;-62
2022/04/15 12:07:42;;;;;;;4.80;1.80;;;;;38.22;97461.00;;;;110710;1252;41255;-62
2022/04/15 12:10:16;;;;;;;3.40;1.40;;;;;39.14;97453.80;;;;110605;1250;41156;-63
2022/04/15 12:12:45;;;;;;;4.10;1.60;;;;;40.08;97456.60;;;;110544;1252;41143;-62
2022/04/15 12:15:15;;;;;;;6.10;2.00;;;;;41.08;97449.40;;;;110703;1251;41451;-62
2022/04/15 12:17:44;;;;;;;5.30;1.60;;;;;41.70;97442.80;;;;110585;1251;41159;-62
2022/04/15 12:20:16;;;;;;;4.40;1.70;;;;;42.02;97442.00;;;;110580;1252;41270;-62
2022/04/15 12:22:45;;;;;;;4.10;1.70;;;;;41.90;97436.80;;;;110545;1252;41130;-61
2022/04/15 12:25:18;;;;;;;4.00;1.70;;;;;41.58;97443.40;;;;110618;1252;41168;-61
2022/04/15 12:27:49;;;;;;;4.90;1.80;;;;;39.96;97436.60;;;;110768;1251;41222;-62
2022/04/15 12:30:36;;;;;;;9.30;2.10;;;;;38.74;97437.60;;;;110696;1251;42090;-61
2022/04/15 12:33:11;;;;;;;5.30;1.80;;;;;36.52;97430.20;;;;110620;1251;41373;-63
2022/04/15 12:36:02;;;;;;;7.50;2.30;;;;;36.24;97426.40;;;;110601;1252;41252;-62